Time;durP1;ratioP1;P1;durP2;ratioP2;P2;SDS_P1;SDS_P2;PMS_P1;PMS_P2;Temp;Humidity;BMP_temperature;BMP_pressure;BME280_temperature;BME280_humidity;BME280_pressure;Samples;Min_cycle;Max_cycle;Signal;HPM_P1;HPM_P2
2022/03/16 00:00:27;;;;;;;63.47;50.40;;;17.20;52.40;;;;;;4967058;27;91162;-73
2022/03/16 00:02:53;;;;;;;63.05;50.33;;;17.10;52.40;;;;;;4961524;28;91657;-75
2022/03/16 00:05:19;;;;;;;62.95;50.00;;;17.10;52.50;;;;;;4944414;27;90265;-76
2022/03/16 00:07:45;;;;;;;62.88;50.08;;;17.10;52.50;;;;;;4961863;28;92877;-74
2022/03/16 00:10:12;;;;;;;62.90;50.15;;;17.10;52.50;;;;;;4955434;28;90375;-74
2022/03/16 00:12:39;;;;;;;61.85;49.50;;;17.10;52.50;;;;;;4961354;28;92695;-76
2022/03/16 00:15:05;;;;;;;62.35;49.70;;;17.10;52.60;;;;;;4952416;28;91702;-75
2022/03/16 00:17:32;;;;;;;62.33;49.80;;;17.10;52.60;;;;;;4969648;28;91596;-75
2022/03/16 00:19:57;;;;;;;63.28;49.83;;;17.00;52.50;;;;;;4970911;28;90821;-75
2022/03/16 00:22:23;;;;;;;62.33;49.60;;;17.00;52.60;;;;;;4966335;28;90942;-75
2022/03/16 00:24:49;;;;;;;63.97;49.53;;;17.00;52.60;;;;;;4961669;28;91576;-74
2022/03/16 00:27:15;;;;;;;63.20;49.97;;;17.00;52.60;;;;;;4953040;28;90879;-76
2022/03/16 00:29:40;;;;;;;63.00;49.53;;;17.00;52.60;;;;;;4975202;28;90293;-75
2022/03/16 00:32:06;;;;;;;63.58;50.15;;;17.00;52.70;;;;;;4965912;28;90617;-75
2022/03/16 00:34:32;;;;;;;62.40;49.53;;;17.00;52.70;;;;;;4967689;28;89980;-75
2022/03/16 00:36:58;;;;;;;62.67;49.67;;;16.90;52.70;;;;;;4956753;28;91224;-74
2022/03/16 00:39:24;;;;;;;61.60;49.17;;;16.90;52.70;;;;;;4968098;28;94939;-76
2022/03/16 00:41:50;;;;;;;61.38;49.10;;;16.90;52.70;;;;;;4963277;28;93083;-76
2022/03/16 00:44:15;;;;;;;61.67;49.55;;;16.90;52.80;;;;;;4959014;28;92596;-76
2022/03/16 00:46:41;;;;;;;62.42;49.55;;;16.90;52.80;;;;;;4961418;28;94245;-73
2022/03/16 00:49:07;;;;;;;62.08;49.28;;;16.80;52.70;;;;;;4966779;28;92792;-76
2022/03/16 00:51:33;;;;;;;62.13;49.50;;;16.80;52.70;;;;;;4960670;28;91343;-75
2022/03/16 00:54:00;;;;;;;62.33;49.78;;;16.80;52.70;;;;;;4957538;28;90407;-76
2022/03/16 00:56:26;;;;;;;61.20;49.22;;;16.80;52.90;;;;;;4971444;28;89665;-74
2022/03/16 00:58:52;;;;;;;62.53;49.53;;;16.90;53.20;;;;;;4969135;28;91143;-76
2022/03/16 01:01:17;;;;;;;63.83;49.60;;;16.90;53.20;;;;;;4969474;28;90570;-74
2022/03/16 01:03:43;;;;;;;61.88;49.47;;;16.90;53.30;;;;;;4967308;28;89866;-76
2022/03/16 01:06:20;;;;;;;61.97;49.45;;;17.00;53.20;;;;;;4955033;28;92858;-75
2022/03/16 01:08:46;;;;;;;62.88;50.05;;;17.00;53.20;;;;;;4967288;28;92051;-73
2022/03/16 01:11:12;;;;;;;62.33;49.78;;;17.10;53.20;;;;;;4969890;28;92223;-76
2022/03/16 01:13:39;;;;;;;62.28;49.55;;;17.20;53.10;;;;;;4967420;28;91379;-75
2022/03/16 01:16:04;;;;;;;63.25;49.78;;;17.30;52.90;;;;;;4966262;28;90334;-74
2022/03/16 01:18:30;;;;;;;61.80;49.20;;;17.40;52.90;;;;;;4947135;28;90853;-73
2022/03/16 01:20:56;;;;;;;61.92;49.40;;;17.40;52.70;;;;;;4976488;27;92710;-76
2022/03/16 01:23:22;;;;;;;63.08;49.53;;;17.50;52.60;;;;;;4959105;28;92815;-73
2022/03/16 01:25:47;;;;;;;62.75;49.63;;;17.50;52.40;;;;;;4977139;28;91409;-76
2022/03/16 01:28:13;;;;;;;62.45;50.03;;;17.60;51.90;;;;;;4953180;27;96251;-75
2022/03/16 01:30:39;;;;;;;64.53;50.03;;;17.60;52.20;;;;;;4964293;28;94487;-75
2022/03/16 01:33:04;;;;;;;61.63;49.45;;;17.60;52.10;;;;;;4970930;28;92091;-75
2022/03/16 01:35:30;;;;;;;62.78;50.03;;;17.70;52.00;;;;;;4958702;28;93374;-74
2022/03/16 01:37:56;;;;;;;62.03;49.58;;;17.70;51.90;;;;;;4966412;28;90453;-76
2022/03/16 01:40:22;;;;;;;62.38;49.70;;;17.70;51.80;;;;;;4953414;28;90743;-75
2022/03/16 01:42:47;;;;;;;62.22;49.58;;;17.70;51.80;;;;;;4973476;28;95532;-76
2022/03/16 01:45:13;;;;;;;62.78;50.00;;;17.70;51.80;;;;;;4944338;28;91783;-75
2022/03/16 01:47:39;;;;;;;62.42;49.60;;;17.70;51.70;;;;;;4980503;28;90932;-74
2022/03/16 01:50:06;;;;;;;62.67;49.67;;;17.70;51.60;;;;;;4969281;28;90066;-76
2022/03/16 01:52:32;;;;;;;62.42;49.40;;;17.70;51.70;;;;;;4978440;27;91583;-73
2022/03/16 01:55:00;;;;;;;61.83;49.80;;;17.70;51.60;;;;;;4975643;28;95166;-75
2022/03/16 01:57:26;;;;;;;61.25;49.22;;;17.70;51.60;;;;;;4977646;28;90351;-76
2022/03/16 01:59:52;;;;;;;62.05;49.92;;;17.70;51.50;;;;;;4970297;27;91144;-74
2022/03/16 02:02:18;;;;;;;63.38;50.20;;;17.70;51.50;;;;;;4971981;28;90830;-74
2022/03/16 02:04:44;;;;;;;62.70;49.95;;;17.70;51.60;;;;;;4984985;28;91037;-76
2022/03/16 02:07:10;;;;;;;61.70;49.60;;;17.70;52.20;;;;;;4984715;28;90781;-75
2022/03/16 02:09:36;;;;;;;62.53;49.85;;;17.70;51.60;;;;;;4973336;28;91483;-75
2022/03/16 02:12:02;;;;;;;64.30;50.25;;;17.70;51.50;;;;;;4978185;28;90311;-74
2022/03/16 02:14:31;;;;;;;62.55;49.97;;;17.70;51.60;;;;;;4982593;28;91231;-74
2022/03/16 02:16:58;;;;;;;61.88;49.28;;;17.70;51.60;;;;;;4987859;28;90835;-74
2022/03/16 02:19:24;;;;;;;61.35;49.38;;;17.70;51.50;;;;;;4977854;28;97063;-76
2022/03/16 02:21:57;;;;;;;62.75;49.45;;;17.60;51.50;;;;;;4981527;28;91145;-73
2022/03/16 02:24:24;;;;;;;61.42;49.13;;;17.60;51.60;;;;;;4980640;28;93420;-75
2022/03/16 02:26:50;;;;;;;61.70;49.03;;;17.60;51.60;;;;;;4981995;28;90999;-73
2022/03/16 02:29:16;;;;;;;62.60;49.65;;;17.60;51.70;;;;;;4972418;28;92296;-75
2022/03/16 02:31:41;;;;;;;61.38;49.25;;;17.60;51.70;;;;;;4978560;28;94267;-74
2022/03/16 02:34:07;;;;;;;61.97;49.50;;;17.50;51.60;;;;;;4969723;28;90792;-74
2022/03/16 02:36:32;;;;;;;61.63;49.33;;;17.50;51.60;;;;;;4983894;28;91594;-74
2022/03/16 02:38:58;;;;;;;62.83;49.75;;;17.50;51.60;;;;;;4982290;28;90944;-75
2022/03/16 02:41:24;;;;;;;62.40;49.63;;;17.50;51.70;;;;;;4983692;28;90453;-75
2022/03/16 02:43:50;;;;;;;61.78;49.15;;;17.50;51.80;;;;;;4984259;28;91331;-76
2022/03/16 02:46:16;;;;;;;62.72;49.53;;;17.50;51.70;;;;;;4957875;28;91934;-74
2022/03/16 02:48:41;;;;;;;61.85;49.45;;;17.50;51.80;;;;;;4960320;28;91681;-73
2022/03/16 02:51:07;;;;;;;62.25;49.53;;;17.40;51.70;;;;;;4966207;28;90837;-73
2022/03/16 02:53:33;;;;;;;62.70;49.47;;;17.40;51.70;;;;;;4976381;28;89632;-75
2022/03/16 02:55:58;;;;;;;62.28;49.60;;;17.40;51.90;;;;;;4969511;28;90586;-75
2022/03/16 02:58:24;;;;;;;62.70;49.45;;;17.40;51.80;;;;;;4972823;28;91310;-76
2022/03/16 03:00:50;;;;;;;62.60;49.83;;;17.40;51.90;;;;;;4975878;28;90239;-76
2022/03/16 03:03:15;;;;;;;61.92;49.53;;;17.40;51.90;;;;;;4979558;28;92014;-75
2022/03/16 03:05:41;;;;;;;61.92;49.35;;;17.30;52.50;;;;;;4973305;28;89953;-74
2022/03/16 03:08:07;;;;;;;61.47;49.13;;;17.40;51.90;;;;;;4975916;28;96134;-75
2022/03/16 03:10:33;;;;;;;62.83;49.65;;;17.30;51.90;;;;;;4963849;28;90778;-76
2022/03/16 03:12:58;;;;;;;62.60;49.60;;;17.30;51.90;;;;;;4974488;28;90490;-75
2022/03/16 03:15:24;;;;;;;62.15;49.70;;;17.30;51.90;;;;;;4982282;28;90714;-76
2022/03/16 03:17:50;;;;;;;62.13;49.33;;;17.30;52.00;;;;;;4979140;28;90062;-75
2022/03/16 03:20:15;;;;;;;63.97;50.13;;;17.30;52.00;;;;;;4969384;28;91451;-75
2022/03/16 03:22:41;;;;;;;64.13;50.05;;;17.20;52.00;;;;;;4982532;28;92012;-76
2022/03/16 03:25:13;;;;;;;62.38;49.78;;;17.20;52.00;;;;;;4974853;28;92244;-74
2022/03/16 03:27:38;;;;;;;63.60;50.03;;;17.20;51.90;;;;;;4986124;28;90693;-74
2022/03/16 03:30:06;;;;;;;62.53;49.85;;;17.20;52.00;;;;;;4980906;28;92097;-76
2022/03/16 03:32:31;;;;;;;63.05;50.45;;;17.20;52.00;;;;;;4979353;28;91181;-74
2022/03/16 03:34:57;;;;;;;62.78;49.50;;;17.20;52.00;;;;;;4973419;28;89668;-76
2022/03/16 03:37:28;;;;;;;61.67;49.47;;;17.20;52.00;;;;;;4979446;28;91485;-75
2022/03/16 03:39:54;;;;;;;62.77;50.33;;;17.20;52.00;;;;;;4974504;28;96760;-76
2022/03/16 03:42:20;;;;;;;61.63;49.55;;;17.20;52.10;;;;;;4976119;28;92291;-75
2022/03/16 03:44:46;;;;;;;62.08;49.53;;;17.10;52.00;;;;;;4975958;28;90791;-76
2022/03/16 03:47:11;;;;;;;63.65;50.15;;;17.10;52.00;;;;;;4977573;28;90949;-76
2022/03/16 03:49:38;;;;;;;62.78;50.00;;;17.10;52.00;;;;;;4985648;28;90379;-76
2022/03/16 03:52:05;;;;;;;61.95;49.45;;;17.10;52.10;;;;;;4985049;28;89897;-75
2022/03/16 03:54:31;;;;;;;62.58;50.15;;;17.10;52.10;;;;;;4980049;28;90773;-75
2022/03/16 03:56:57;;;;;;;63.03;50.30;;;17.10;52.10;;;;;;4980778;28;91547;-75
2022/03/16 03:59:23;;;;;;;62.78;49.80;;;17.00;52.10;;;;;;4980329;28;92388;-74
2022/03/16 04:01:51;;;;;;;62.88;49.78;;;17.00;52.10;;;;;;4992475;28;90950;-76
2022/03/16 04:04:17;;;;;;;61.70;49.42;;;17.00;52.20;;;;;;4983528;28;89516;-76
2022/03/16 04:06:43;;;;;;;61.85;49.15;;;17.00;52.20;;;;;;4985226;28;91966;-75
2022/03/16 04:09:09;;;;;;;62.03;49.40;;;17.00;52.20;;;;;;4976647;28;90724;-74
2022/03/16 04:11:35;;;;;;;61.20;49.03;;;17.00;52.30;;;;;;4983625;28;90789;-77
2022/03/16 04:14:01;;;;;;;61.38;49.22;;;17.00;52.30;;;;;;4987100;28;90275;-74
2022/03/16 04:16:27;;;;;;;61.92;49.25;;;17.00;52.30;;;;;;4986474;28;90278;-76
2022/03/16 04:18:52;;;;;;;62.88;50.22;;;17.00;52.30;;;;;;4983266;28;91403;-76
2022/03/16 04:21:18;;;;;;;61.63;49.20;;;17.10;52.40;;;;;;4986406;28;90401;-76
2022/03/16 04:23:44;;;;;;;63.60;49.80;;;17.10;52.40;;;;;;4988671;28;91505;-77
2022/03/16 04:26:09;;;;;;;62.00;49.63;;;17.10;52.40;;;;;;4978395;28;94334;-75
2022/03/16 04:28:35;;;;;;;63.88;49.75;;;17.10;52.30;;;;;;4988092;28;91942;-76
2022/03/16 04:31:01;;;;;;;64.15;50.22;;;17.20;52.30;;;;;;4974464;28;90218;-76
2022/03/16 04:33:28;;;;;;;62.80;49.72;;;17.20;52.20;;;;;;4987443;28;89587;-74
2022/03/16 04:35:54;;;;;;;63.38;49.95;;;17.20;52.20;;;;;;4979964;28;90454;-77
2022/03/16 04:38:20;;;;;;;62.15;49.72;;;17.20;52.10;;;;;;4975222;28;90082;-76
2022/03/16 04:40:46;;;;;;;61.88;49.38;;;17.20;52.10;;;;;;4973825;28;90194;-76
2022/03/16 04:43:12;;;;;;;61.42;49.30;;;17.30;52.50;;;;;;4982477;28;91073;-77
2022/03/16 04:45:39;;;;;;;63.55;49.83;;;17.20;52.00;;;;;;4984845;28;91614;-77
2022/03/16 04:48:09;;;;;;;61.45;49.38;;;17.30;52.00;;;;;;4989391;28;91097;-77
2022/03/16 04:50:35;;;;;;;62.42;49.70;;;17.20;52.00;;;;;;4978339;28;90712;-77
2022/03/16 04:53:02;;;;;;;62.67;49.63;;;17.30;52.00;;;;;;4987461;28;90599;-77
2022/03/16 04:55:28;;;;;;;62.17;49.67;;;17.20;52.00;;;;;;4980396;28;92978;-76
2022/03/16 04:57:53;;;;;;;61.50;49.70;;;17.30;52.00;;;;;;4986341;28;90358;-76
2022/03/16 05:00:19;;;;;;;63.30;50.03;;;17.20;51.90;;;;;;4972937;28;90796;-76
2022/03/16 05:02:45;;;;;;;62.55;49.85;;;17.30;52.00;;;;;;4980527;28;89744;-76
2022/03/16 05:05:10;;;;;;;62.78;49.40;;;17.20;52.20;;;;;;4983030;28;91807;-76
2022/03/16 05:07:37;;;;;;;63.65;49.92;;;17.30;52.30;;;;;;4973912;28;92969;-76
2022/03/16 05:10:07;;;;;;;63.72;50.00;;;17.30;52.30;;;;;;4973319;28;91411;-77
2022/03/16 05:12:41;;;;;;;62.33;49.72;;;17.30;52.20;;;;;;4978702;28;90938;-76
2022/03/16 05:15:08;;;;;;;63.08;49.78;;;17.40;52.30;;;;;;4972931;28;90343;-77
2022/03/16 05:17:34;;;;;;;61.92;49.33;;;17.50;52.20;;;;;;4980931;28;92993;-77
2022/03/16 05:20:00;;;;;;;62.55;49.67;;;17.50;52.10;;;;;;4977872;28;92962;-77
2022/03/16 05:22:26;;;;;;;62.42;50.03;;;17.60;52.10;;;;;;4984249;28;90931;-77
2022/03/16 05:24:51;;;;;;;62.55;49.92;;;17.60;52.00;;;;;;4981528;27;91157;-77
2022/03/16 05:27:20;;;;;;;63.97;50.58;;;17.70;51.90;;;;;;4982537;28;92137;-77
2022/03/16 05:29:47;;;;;;;63.90;50.28;;;17.70;51.90;;;;;;4975610;28;90779;-77
2022/03/16 05:32:13;;;;;;;63.78;50.20;;;17.80;51.80;;;;;;4981405;28;93611;-77
2022/03/16 05:34:38;;;;;;;63.40;50.20;;;17.80;51.60;;;;;;4981611;28;93238;-77
2022/03/16 05:37:05;;;;;;;63.22;50.33;;;17.90;51.60;;;;;;4993971;28;92286;-77
2022/03/16 05:39:31;;;;;;;62.10;49.65;;;18.00;51.60;;;;;;4981008;28;91052;-77
2022/03/16 05:41:56;;;;;;;62.40;49.90;;;18.00;51.40;;;;;;4968717;28;90970;-75
2022/03/16 05:44:22;;;;;;;62.65;49.53;;;18.10;51.40;;;;;;4968820;28;92115;-76
2022/03/16 05:46:48;;;;;;;63.50;49.22;;;18.10;51.20;;;;;;4977439;28;91570;-73
2022/03/16 05:49:14;;;;;;;63.78;50.15;;;18.10;51.20;;;;;;4959108;28;90133;-75
2022/03/16 05:51:39;;;;;;;62.50;49.63;;;18.20;51.30;;;;;;4962183;28;90442;-74
2022/03/16 05:54:05;;;;;;;64.47;50.67;;;18.20;51.20;;;;;;4956388;28;96677;-76
2022/03/16 05:56:31;;;;;;;62.05;49.50;;;18.20;51.10;;;;;;4961749;28;94721;-76
2022/03/16 05:58:57;;;;;;;61.92;48.97;;;18.30;51.10;;;;;;4950725;28;92491;-74
2022/03/16 06:01:23;;;;;;;63.95;50.20;;;18.30;51.10;;;;;;4946498;28;91062;-72
2022/03/16 06:03:49;;;;;;;63.97;49.88;;;18.30;51.00;;;;;;4944890;28;91259;-74
2022/03/16 06:06:15;;;;;;;63.50;50.25;;;18.40;50.90;;;;;;4952735;28;90716;-76
2022/03/16 06:08:41;;;;;;;63.38;50.15;;;18.40;50.90;;;;;;4950413;28;95430;-73
2022/03/16 06:11:07;;;;;;;63.78;50.08;;;18.50;50.90;;;;;;4962062;28;93012;-73
2022/03/16 06:13:32;;;;;;;62.15;49.28;;;18.50;50.80;;;;;;4955654;28;91747;-75
2022/03/16 06:15:58;;;;;;;63.40;50.17;;;18.50;50.80;;;;;;4962691;28;92304;-74
2022/03/16 06:18:23;;;;;;;62.78;49.63;;;18.50;50.70;;;;;;4962472;28;92620;-73
2022/03/16 06:34:59;;;;;;;63.35;50.50;;;18.70;50.50;;;;;;4973084;28;91130;-72
2022/03/16 06:37:25;;;;;;;63.22;50.13;;;18.70;50.40;;;;;;4962298;28;91465;-75
2022/03/16 06:39:50;;;;;;;63.80;49.83;;;18.70;50.40;;;;;;4954567;28;91294;-73
2022/03/16 06:42:16;;;;;;;69.63;50.50;;;18.70;50.40;;;;;;4960641;28;90277;-73
2022/03/16 06:44:42;;;;;;;73.50;52.63;;;18.70;50.80;;;;;;4970676;28;90454;-76
2022/03/16 06:47:07;;;;;;;82.20;52.63;;;18.80;52.30;;;;;;4967082;28;94853;-75
2022/03/16 06:56:17;;;;;;;;;;;19.00;53.00;;;;;;4982066;28;94037;-77
2022/03/16 06:58:43;;;;;;;80.90;52.60;;;19.00;52.80;;;;;;4972180;28;90446;-77
2022/03/16 07:01:08;;;;;;;76.05;53.25;;;19.10;52.70;;;;;;4980619;27;92986;-78
2022/03/16 07:03:34;;;;;;;77.10;52.72;;;19.20;52.60;;;;;;4974551;28;96279;-75
2022/03/16 07:06:00;;;;;;;79.22;53.33;;;19.20;52.20;;;;;;4966994;28;91617;-76
2022/03/16 07:08:26;;;;;;;74.60;53.25;;;19.30;52.20;;;;;;4968681;28;90972;-77
2022/03/16 07:10:51;;;;;;;72.63;53.22;;;19.30;52.00;;;;;;4957954;28;90100;-77
2022/03/16 07:13:17;;;;;;;73.50;53.03;;;19.30;51.80;;;;;;4970403;28;90363;-75
2022/03/16 07:15:44;;;;;;;77.32;52.90;;;19.30;51.60;;;;;;4960460;28;90333;-75
2022/03/16 07:18:10;;;;;;;74.28;52.92;;;19.40;51.50;;;;;;4962207;28;95467;-75
2022/03/16 07:20:37;;;;;;;72.22;52.50;;;19.40;51.40;;;;;;4952374;28;93142;-75
2022/03/16 07:23:14;;;;;;;74.38;53.35;;;19.40;51.20;;;;;;4969991;28;91185;-75
2022/03/16 07:25:45;;;;;;;70.82;52.70;;;19.40;51.20;;;;;;4987098;28;91464;-75
2022/03/16 07:28:11;;;;;;;;;;;19.50;51.20;;;;;;4990487;28;90842;-75
2022/03/16 07:30:37;;;;;;;74.07;52.28;;;19.50;51.10;;;;;;4985369;28;90566;-75
2022/03/16 07:33:04;;;;;;;73.78;52.78;;;19.60;51.10;;;;;;4981997;28;94635;-75
2022/03/16 07:35:30;;;;;;;73.47;52.40;;;19.50;51.00;;;;;;4981987;28;89757;-75
2022/03/16 07:37:57;;;;;;;70.80;52.45;;;19.60;51.00;;;;;;4972284;28;89822;-75
2022/03/16 07:40:24;;;;;;;71.22;52.38;;;19.60;51.00;;;;;;4962789;28;90046;-76
2022/03/16 07:42:51;;;;;;;73.40;52.42;;;19.60;50.80;;;;;;4982113;28;91634;-75
2022/03/16 07:45:18;;;;;;;70.07;52.33;;;19.60;50.70;;;;;;4986109;28;90899;-75
2022/03/16 07:47:46;;;;;;;75.75;52.50;;;19.60;50.80;;;;;;4979680;28;90267;-75
2022/03/16 07:50:11;;;;;;;71.07;52.72;;;19.60;50.60;;;;;;4978294;28;90417;-75
2022/03/16 07:52:37;;;;;;;70.75;52.08;;;19.60;50.60;;;;;;4983266;28;89782;-75
2022/03/16 07:55:04;;;;;;;69.32;52.15;;;19.60;50.60;;;;;;4990283;28;90062;-75
2022/03/16 07:57:30;;;;;;;69.28;52.38;;;19.60;50.60;;;;;;4982456;28;90320;-75
2022/03/16 07:59:56;;;;;;;74.18;52.50;;;19.60;50.50;;;;;;4980245;28;92367;-75
2022/03/16 08:02:22;;;;;;;70.60;52.22;;;19.60;50.40;;;;;;4986593;28;90266;-75
2022/03/16 08:04:47;;;;;;;70.07;52.50;;;19.60;50.50;;;;;;4982302;28;98198;-75
2022/03/16 08:07:13;;;;;;;71.93;51.92;;;19.60;50.30;;;;;;4984028;28;92609;-77
2022/03/16 08:09:39;;;;;;;74.10;52.45;;;19.70;50.40;;;;;;4953281;28;90686;-77
2022/03/16 08:12:05;;;;;;;69.32;52.13;;;19.70;50.30;;;;;;4980755;28;90713;-77
2022/03/16 08:14:31;;;;;;;70.15;51.88;;;19.70;50.20;;;;;;4982419;28;90484;-77
2022/03/16 08:16:57;;;;;;;75.10;52.63;;;19.70;50.20;;;;;;4981297;28;90665;-77
2022/03/16 08:19:22;;;;;;;70.95;52.45;;;19.70;50.10;;;;;;4981567;28;90037;-77
2022/03/16 08:21:48;;;;;;;69.63;51.78;;;19.70;50.00;;;;;;4985777;28;91553;-77
2022/03/16 08:24:14;;;;;;;72.10;51.72;;;19.70;50.10;;;;;;4986063;28;89865;-77
2022/03/16 08:26:40;;;;;;;69.65;52.13;;;19.70;50.00;;;;;;4974751;28;93197;-77
2022/03/16 08:29:06;;;;;;;70.25;51.90;;;19.70;50.00;;;;;;4985081;28;90255;-77
2022/03/16 08:31:31;;;;;;;71.80;51.85;;;19.70;49.90;;;;;;4984699;28;91731;-77
2022/03/16 08:33:57;;;;;;;71.82;52.35;;;19.80;49.90;;;;;;4986364;28;91261;-77
2022/03/16 08:36:22;;;;;;;69.15;52.17;;;19.70;49.70;;;;;;4988375;28;90963;-77
2022/03/16 08:38:48;;;;;;;69.03;51.72;;;19.70;49.70;;;;;;4985496;28;90036;-77
2022/03/16 08:41:14;;;;;;;71.57;52.33;;;19.80;49.80;;;;;;4983863;28;95435;-77
2022/03/16 08:43:39;;;;;;;70.70;52.47;;;19.80;49.70;;;;;;4984727;28;90441;-77
2022/03/16 08:46:05;;;;;;;69.88;51.80;;;19.70;50.30;;;;;;4988048;28;90304;-77
2022/03/16 08:48:31;;;;;;;71.00;52.53;;;19.70;49.70;;;;;;4982985;28;89645;-77
2022/03/16 08:50:57;;;;;;;70.28;52.22;;;19.70;49.60;;;;;;4970857;28;91360;-77
2022/03/16 08:53:22;;;;;;;69.03;51.70;;;19.70;49.70;;;;;;4976135;28;91057;-77
2022/03/16 08:55:48;;;;;;;72.40;53.03;;;19.70;49.70;;;;;;4984581;28;92137;-77
2022/03/16 08:58:14;;;;;;;68.68;52.38;;;19.70;49.60;;;;;;4993316;28;91527;-77
2022/03/16 09:00:41;;;;;;;70.65;51.92;;;19.70;49.70;;;;;;4978818;28;90147;-77
2022/03/16 09:03:08;;;;;;;69.13;52.10;;;19.70;49.70;;;;;;4991513;28;90835;-77
2022/03/16 09:05:34;;;;;;;70.18;52.22;;;19.70;49.70;;;;;;4982053;28;91063;-77
2022/03/16 09:08:00;;;;;;;71.07;52.10;;;19.70;49.70;;;;;;4988365;28;92782;-77
2022/03/16 09:10:26;;;;;;;70.53;52.08;;;19.70;49.70;;;;;;4979349;28;90672;-73
2022/03/16 09:12:52;;;;;;;71.15;52.38;;;19.70;49.70;;;;;;4965300;28;89715;-76
2022/03/16 09:15:18;;;;;;;71.60;52.85;;;19.60;49.70;;;;;;4982102;28;90845;-77
2022/03/16 09:17:44;;;;;;;69.20;51.90;;;19.60;49.70;;;;;;4973503;28;91987;-77
2022/03/16 09:20:09;;;;;;;70.43;52.15;;;19.60;49.70;;;;;;4971115;28;91688;-77
2022/03/16 09:22:35;;;;;;;70.90;52.60;;;19.60;49.70;;;;;;4990667;28;89853;-77
2022/03/16 09:25:01;;;;;;;69.93;52.35;;;19.60;49.80;;;;;;4984773;28;91579;-76
2022/03/16 09:27:27;;;;;;;71.40;52.60;;;19.60;49.80;;;;;;4984947;28;91701;-77
2022/03/16 09:29:55;;;;;;;69.50;52.35;;;19.60;49.80;;;;;;4985172;28;91377;-77
2022/03/16 09:32:21;;;;;;;71.82;52.67;;;19.60;49.80;;;;;;4975296;28;90878;-77
2022/03/16 09:34:51;;;;;;;70.35;52.75;;;19.50;49.80;;;;;;4984191;28;91228;-77
2022/03/16 09:37:17;;;;;;;71.35;51.97;;;19.50;49.90;;;;;;4978085;28;90585;-77
2022/03/16 09:39:43;;;;;;;70.40;52.30;;;19.50;49.90;;;;;;4985546;28;90870;-77
2022/03/16 09:42:09;;;;;;;80.78;54.05;;;19.50;50.00;;;;;;4967690;28;90665;-77
2022/03/16 09:51:19;;;;;;;77.28;53.70;;;19.50;50.30;;;;;;4980666;28;90942;-77
2022/03/16 09:53:45;;;;;;;77.68;53.53;;;19.50;50.30;;;;;;4970728;28;90078;-75
2022/03/16 09:56:11;;;;;;;77.43;53.75;;;19.60;50.20;;;;;;4961823;28;90979;-76
2022/03/16 09:58:38;;;;;;;80.43;53.88;;;19.60;50.20;;;;;;4975045;27;91018;-77
2022/03/16 10:01:05;;;;;;;78.68;54.72;;;19.60;50.10;;;;;;4971608;28;89977;-75
2022/03/16 10:03:32;;;;;;;80.22;54.47;;;19.70;50.00;;;;;;4967595;28;90446;-77
2022/03/16 10:05:58;;;;;;;81.78;54.22;;;19.70;49.90;;;;;;4964869;28;92161;-76
2022/03/16 10:08:32;;;;;;;84.68;54.30;;;19.80;49.90;;;;;;4963349;28;93036;-76
2022/03/16 10:14:14;;;;;;;78.63;54.63;;;19.90;49.80;;;;;;4973467;28;89956;-77
2022/03/16 10:19:50;;;;;;;79.00;54.83;;;20.00;49.50;;;;;;4968936;28;93380;-76
2022/03/16 10:22:27;;;;;;;80.25;53.88;;;20.10;49.40;;;;;;4960860;28;93224;-76
2022/03/16 10:25:00;;;;;;;80.20;54.65;;;20.10;49.30;;;;;;4977475;28;90989;-77
2022/03/16 10:27:26;;;;;;;82.10;54.50;;;20.20;49.30;;;;;;4983035;28;90822;-77
2022/03/16 10:29:51;;;;;;;83.03;55.03;;;20.30;49.30;;;;;;4976674;28;89665;-76
2022/03/16 10:32:21;;;;;;;79.95;54.97;;;20.40;49.20;;;;;;4980284;28;89526;-76
2022/03/16 10:34:55;;;;;;;79.10;54.85;;;20.40;49.20;;;;;;4975264;27;94454;-77
2022/03/16 10:37:22;;;;;;;81.25;54.95;;;20.50;49.10;;;;;;4969510;28;93747;-76
2022/03/16 10:39:52;;;;;;;83.85;55.00;;;20.60;49.40;;;;;;4968566;27;91013;-76
2022/03/16 10:48:14;;;;;;;84.07;56.20;;;20.70;49.60;;;;;;4954759;28;92411;-76
2022/03/16 10:50:41;;;;;;;82.97;55.65;;;20.80;49.00;;;;;;4968069;28;91227;-73
2022/03/16 10:53:12;;;;;;;84.60;56.08;;;20.80;48.90;;;;;;4963329;28;91873;-76
2022/03/16 10:55:39;;;;;;;89.72;57.67;;;20.80;48.80;;;;;;4970096;28;89847;-73
2022/03/16 10:58:07;;;;;;;89.05;56.63;;;20.80;48.60;;;;;;4958377;28;91230;-76
2022/03/16 11:00:37;;;;;;;89.82;57.72;;;20.90;48.70;;;;;;4964088;28;91197;-76
2022/03/16 11:03:06;;;;;;;90.85;56.50;;;20.90;48.60;;;;;;4986144;28;91319;-76
2022/03/16 11:05:36;;;;;;;90.15;55.78;;;20.90;48.50;;;;;;4969176;27;91507;-75
2022/03/16 11:08:09;;;;;;;87.03;55.50;;;20.90;48.60;;;;;;4978117;28;91917;-75
2022/03/16 11:10:36;;;;;;;88.10;56.53;;;21.00;48.70;;;;;;4976600;28;90824;-76
2022/03/16 11:15:50;;;;;;;88.55;57.15;;;21.00;48.50;;;;;;4978746;28;91390;-77
2022/03/16 11:18:20;;;;;;;88.60;56.63;;;21.00;48.40;;;;;;4989010;28;90491;-78
2022/03/16 11:20:51;;;;;;;86.77;56.97;;;21.10;48.40;;;;;;4990176;28;92447;-78
2022/03/16 11:26:23;;;;;;;89.70;55.72;;;21.10;48.30;;;;;;4970989;28;91064;-75
2022/03/16 11:28:59;;;;;;;83.80;55.65;;;21.10;48.30;;;;;;4974614;28;94898;-75
2022/03/16 11:31:29;;;;;;;86.85;55.15;;;21.10;48.30;;;;;;4960583;28;92474;-75
2022/03/16 11:33:55;;;;;;;87.53;55.85;;;21.20;48.50;;;;;;4958863;28;90250;-74
2022/03/16 11:36:37;;;;;;;91.90;55.90;;;21.10;48.40;;;;;;4962219;28;91007;-75
2022/03/16 11:39:14;;;;;;;88.60;56.15;;;21.20;48.50;;;;;;4975336;28;92017;-75
2022/03/16 11:41:52;;;;;;;87.47;55.95;;;21.20;48.50;;;;;;4980771;28;91003;-76
2022/03/16 11:44:26;;;;;;;91.65;56.03;;;21.20;48.60;;;;;;4971235;27;90762;-75
2022/03/16 11:47:16;;;;;;;86.72;56.42;;;21.30;48.70;;;;;;4984994;28;89497;-76
2022/03/16 11:49:45;;;;;;;87.65;55.85;;;21.20;48.60;;;;;;4967518;28;92701;-77
2022/03/16 11:52:12;;;;;;;88.53;56.00;;;21.20;48.60;;;;;;4989592;28;89877;-76
2022/03/16 11:54:45;;;;;;;85.22;55.65;;;21.30;48.50;;;;;;4984130;28;90857;-76
2022/03/16 11:57:11;;;;;;;89.22;56.60;;;21.30;48.50;;;;;;4982171;28;90000;-74
2022/03/16 11:59:45;;;;;;;86.68;55.83;;;21.30;48.50;;;;;;4975517;28;90180;-74
2022/03/16 12:02:22;;;;;;;84.72;56.22;;;21.30;48.60;;;;;;4973734;28;94637;-74
2022/03/16 12:04:49;;;;;;;93.30;57.92;;;21.30;48.60;;;;;;4973890;28;90600;-76
2022/03/16 12:07:22;;;;;;;95.03;57.60;;;21.30;48.50;;;;;;4970186;27;90589;-74
2022/03/16 12:09:54;;;;;;;88.05;57.22;;;21.30;48.60;;;;;;4977672;28;90192;-75
2022/03/16 12:15:33;;;;;;;86.45;56.58;;;21.40;48.20;;;;;;4976980;28;90981;-76
2022/03/16 12:17:59;;;;;;;86.75;56.92;;;21.40;48.10;;;;;;4980165;28;91835;-77
2022/03/16 12:20:30;;;;;;;87.45;56.95;;;21.40;48.10;;;;;;4965880;28;92625;-77
2022/03/16 12:23:05;;;;;;;87.15;57.70;;;21.40;47.90;;;;;;4969399;28;94146;-76
2022/03/16 12:25:32;;;;;;;86.90;56.75;;;21.40;47.80;;;;;;4977196;28;90170;-75
2022/03/16 12:31:15;;;;;;;89.35;57.38;;;21.40;47.90;;;;;;4969519;28;90958;-76
2022/03/16 12:33:52;;;;;;;88.75;56.85;;;21.40;47.90;;;;;;4981821;27;91753;-76
2022/03/16 12:36:36;;;;;;;86.40;57.17;;;21.40;47.50;;;;;;4979977;28;89578;-75
2022/03/16 12:39:12;;;;;;;85.55;56.78;;;21.40;47.60;;;;;;4969353;28;90472;-75
2022/03/16 12:44:23;;;;;;;86.00;57.10;;;21.40;47.60;;;;;;4968865;28;91188;-76
2022/03/16 12:47:07;;;;;;;88.63;57.30;;;21.40;47.50;;;;;;4987618;28;92436;-76
2022/03/16 12:49:39;;;;;;;86.70;57.03;;;21.40;47.50;;;;;;4982509;28;89692;-76
2022/03/16 12:52:05;;;;;;;87.45;56.42;;;21.40;47.30;;;;;;4960608;28;93121;-75
2022/03/16 12:54:34;;;;;;;89.72;57.88;;;21.40;47.50;;;;;;4968891;28;90722;-73
2022/03/16 12:57:03;;;;;;;89.50;58.30;;;21.40;47.40;;;;;;4975997;28;90224;-75
2022/03/16 12:59:34;;;;;;;90.43;57.95;;;21.40;47.50;;;;;;4974793;28;90687;-75
2022/03/16 13:02:07;;;;;;;87.65;57.38;;;21.30;47.80;;;;;;4964526;28;92815;-75
2022/03/16 13:04:33;;;;;;;86.63;57.10;;;21.40;47.90;;;;;;4961800;28;90298;-76
2022/03/16 13:06:59;;;;;;;88.20;57.22;;;21.30;47.80;;;;;;4962371;28;91291;-76
2022/03/16 13:09:30;;;;;;;86.90;56.65;;;21.30;47.60;;;;;;4952912;28;91008;-76
2022/03/16 13:12:09;;;;;;;85.07;56.10;;;21.30;47.40;;;;;;4945939;28;92586;-74
2022/03/16 13:14:38;;;;;;;86.68;56.80;;;21.30;47.60;;;;;;4952662;28;98199;-74
2022/03/16 13:17:07;;;;;;;84.72;56.42;;;21.30;47.80;;;;;;4951487;28;91042;-74
2022/03/16 13:19:34;;;;;;;82.75;55.85;;;21.30;48.10;;;;;;4941372;28;91467;-75
2022/03/16 13:22:09;;;;;;;84.10;55.83;;;21.30;48.40;;;;;;4957944;28;92180;-77